CSZ5861 ZPPP-ZSWZ
Flight info
| Callsign | CSZ5861 |
|---|---|
| Flight time | N/A |
| Altitude | 33100 |
| Route | NODIB X91 P651 H166 VIDOM W586 UBDID H24 LLC W46 PULES H24 KHN X38 ATMOX V171 SHR H17 P214 X45 KAGED |
| Aircraft | A321/M-SDE3FGHIRWY/LB1 |
Departure
| Time | 2026-05-08 12:10 |
|---|---|
| Airport | Kunming Changshui International Airport (ZPPP) |
Arrival
| Time | N/A |
|---|---|
| Airport | Wenzhou Longwan International Airport (ZSWZ) |
| Time | Latitude | Longitude | Altitude | Speed | Heading |
|---|---|---|---|---|---|
| 2026-05-08 11:56 | 25.10265 | 102.92494 | 6905 ft | 0 kts | 219° |
| 2026-05-08 12:02 | 25.10277 | 102.92506 | 6915 ft | 4 kts | 220° |
| 2026-05-08 12:02 | 25.10298 | 102.92525 | 6913 ft | 4 kts | 221° |
| 2026-05-08 12:02 | 25.10315 | 102.92542 | 6914 ft | 4 kts | 237° |
| 2026-05-08 12:03 | 25.10321 | 102.92566 | 6918 ft | 4 kts | 291° |
| 2026-05-08 12:03 | 25.10310 | 102.92587 | 6914 ft | 1 kts | 308° |
| 2026-05-08 12:03 | 25.10307 | 102.92590 | 6914 ft | 0 kts | 308° |
| 2026-05-08 12:05 | 25.10314 | 102.92580 | 6916 ft | 4 kts | 308° |
| 2026-05-08 12:05 | 25.10337 | 102.92548 | 6908 ft | 7 kts | 307° |
| 2026-05-08 12:06 | 25.10374 | 102.92495 | 6914 ft | 10 kts | 307° |
| 2026-05-08 12:06 | 25.10425 | 102.92425 | 6914 ft | 13 kts | 309° |
| 2026-05-08 12:06 | 25.10488 | 102.92339 | 6915 ft | 14 kts | 309° |
| 2026-05-08 12:06 | 25.10544 | 102.92252 | 6913 ft | 15 kts | 287° |
| 2026-05-08 12:07 | 25.10485 | 102.92167 | 6913 ft | 15 kts | 217° |
| 2026-05-08 12:07 | 25.10403 | 102.92096 | 6913 ft | 16 kts | 219° |
| 2026-05-08 12:07 | 25.10307 | 102.92012 | 6915 ft | 19 kts | 219° |
| 2026-05-08 12:07 | 25.10237 | 102.91950 | 6919 ft | 19 kts | 218° |
| 2026-05-08 12:08 | 25.10147 | 102.91859 | 6922 ft | 15 kts | 248° |
| 2026-05-08 12:08 | 25.10190 | 102.91768 | 6917 ft | 15 kts | 311° |
| 2026-05-08 12:08 | 25.10273 | 102.91737 | 6911 ft | 10 kts | 36° |
| 2026-05-08 12:08 | 25.10311 | 102.91769 | 6920 ft | 0 kts | 37° |
| 2026-05-08 12:09 | 25.10328 | 102.91784 | 6909 ft | 18 kts | 38° |
| 2026-05-08 12:09 | 25.10586 | 102.92009 | 6909 ft | 76 kts | 39° |
| 2026-05-08 12:09 | 25.11134 | 102.92485 | 6915 ft | 123 kts | 38° |
| 2026-05-08 12:10 | 25.11905 | 102.93157 | 6902 ft | 159 kts | 38° |
| 2026-05-08 12:10 | 25.12858 | 102.93987 | 6942 ft | 186 kts | 38° |
| 2026-05-08 12:10 | 25.13922 | 102.94816 | 7392 ft | 188 kts | 27° |
| 2026-05-08 12:10 | 25.15119 | 102.95407 | 7956 ft | 189 kts | 23° |
| 2026-05-08 12:11 | 25.16324 | 102.95963 | 8387 ft | 191 kts | 23° |
| 2026-05-08 12:11 | 25.17594 | 102.96548 | 8630 ft | 203 kts | 23° |
| 2026-05-08 12:11 | 25.18960 | 102.97178 | 8750 ft | 221 kts | 23° |
| 2026-05-08 12:11 | 25.20436 | 102.97863 | 8897 ft | 238 kts | 23° |
| 2026-05-08 12:12 | 25.22012 | 102.98596 | 9023 ft | 254 kts | 23° |
| 2026-05-08 12:12 | 25.23684 | 102.99375 | 9171 ft | 272 kts | 23° |
| 2026-05-08 12:12 | 25.25451 | 103.00200 | 9631 ft | 278 kts | 23° |
| 2026-05-08 12:12 | 25.27246 | 103.01039 | 10141 ft | 283 kts | 22° |
| 2026-05-08 12:13 | 25.29071 | 103.01891 | 10648 ft | 285 kts | 22° |
| 2026-05-08 12:13 | 25.30901 | 103.02746 | 11186 ft | 287 kts | 22° |
| 2026-05-08 12:13 | 25.32752 | 103.03611 | 11692 ft | 289 kts | 21° |
| 2026-05-08 12:13 | 25.34610 | 103.04481 | 12211 ft | 291 kts | 21° |
| 2026-05-08 12:14 | 25.36483 | 103.05358 | 12715 ft | 294 kts | 21° |
| 2026-05-08 12:14 | 25.38371 | 103.06241 | 13220 ft | 296 kts | 20° |
| 2026-05-08 12:14 | 25.40278 | 103.07133 | 13709 ft | 299 kts | 20° |
| 2026-05-08 12:14 | 25.42103 | 103.08252 | 14181 ft | 304 kts | 40° |
| 2026-05-08 12:15 | 25.43397 | 103.10126 | 14465 ft | 316 kts | 67° |
| 2026-05-08 12:15 | 25.43984 | 103.12523 | 14593 ft | 331 kts | 78° |
| 2026-05-08 12:15 | 25.44465 | 103.15081 | 14706 ft | 347 kts | 78° |
| 2026-05-08 12:15 | 25.44963 | 103.17752 | 14827 ft | 362 kts | 78° |
| 2026-05-08 12:16 | 25.45487 | 103.20538 | 14940 ft | 377 kts | 78° |
| 2026-05-08 12:16 | 25.46040 | 103.23431 | 15060 ft | 391 kts | 78° |
| 2026-05-08 12:16 | 25.46610 | 103.26380 | 15170 ft | 404 kts | 78° |
| 2026-05-08 12:16 | 25.47214 | 103.29506 | 15293 ft | 417 kts | 78° |
| 2026-05-08 12:17 | 25.47823 | 103.32653 | 15405 ft | 430 kts | 78° |
| 2026-05-08 12:17 | 25.48466 | 103.35975 | 15524 ft | 442 kts | 78° |
| 2026-05-08 12:17 | 25.49116 | 103.39352 | 15640 ft | 454 kts | 78° |
| 2026-05-08 12:17 | 25.49781 | 103.42806 | 15876 ft | 462 kts | 78° |
| 2026-05-08 12:18 | 25.50451 | 103.46299 | 16209 ft | 466 kts | 78° |
| 2026-05-08 12:18 | 25.51114 | 103.49773 | 16555 ft | 469 kts | 78° |
| 2026-05-08 12:18 | 25.51790 | 103.53325 | 16878 ft | 474 kts | 78° |
| 2026-05-08 12:18 | 25.52020 | 103.54530 | 16983 ft | 475 kts | 78° |